Aominesanmaru No.58 — JI3551 — position and weather

sailwx.info

Track history (hours):
 
Tides and Currents Weather Stations Pressure Air Temp Water Temp Dewpoint Dewpoint Depression Visibility Wind Speed Wind Dir Waves Ship Positions

Aominesanmaru No.58

Last reported at 2018-Jun-22 07:45 UTC. Time now 2018-Jun-22 14:56 UTC.
Position N 35°31' E 139°45'.

Length 59 m.

Type: Ship (hazmat cat A). MMSI: 431006719.

Date/timePositionNaut miles runAvg speedWind from/ knotsBaromVisibWave heightAir tempDewpointWater temp
2018-Jun-22 07:45N 35°31' E 139°45'2 8.0
2018-Jun-22 07:27N 35°29' E 139°43'4 9.3
2018-Jun-22 07:00N 35°25' E 139°42'3 5.6
2018-Jun-22 06:24N 35°24' E 139°38'0 0.0
2018-Jun-22 05:57N 35°24' E 139°38'0 0.0
2018-Jun-22 05:30N 35°24' E 139°38'0 0.0
2018-Jun-22 04:57N 35°24' E 139°38'0 0.0
2018-Jun-22 04:30N 35°24' E 139°38'1 2.2
2018-Jun-22 03:52N 35°24' E 139°40'0 0.6
2018-Jun-22 03:30N 35°24' E 139°40'4 6.7
2018-Jun-22 02:54N 35°26' E 139°44'3 1.3
2018-Jun-22 00:47N 35°28' E 139°47'3 0.1
2018-Jun-20 21:18N 35°25' E 139°49'6 0.3
2018-Jun-20 02:48N 35°30' E 139°45'3 9.9
2018-Jun-20 02:29N 35°29' E 139°42'5 9.3
2018-Jun-20 01:57N 35°23' E 139°41'3 2.4
2018-Jun-20 00:44N 35°25' E 139°38'0 0.0
2018-Jun-20 00:23N 35°25' E 139°38'0 0.0
2018-Jun-19 23:41N 35°25' E 139°38'0 1.3
2018-Jun-19 23:27N 35°25' E 139°39'2 5.4
2018-Jun-19 23:00N 35°24' E 139°41'610.4
2018-Jun-19 22:28N 35°29' E 139°42'3 0.2
2018-Jun-19 09:44N 35°31' E 139°45'4 8.5
2018-Jun-19 09:18N 35°30' E 139°49'3 0.5
2018-Jun-19 03:32N 35°30' E 139°46'010.0
2018-Jun-19 03:30N 35°30' E 139°45'1 0.6
2018-Jun-19 02:22N 35°30' E 139°45'0 0.0
2018-Jun-19 01:55N 35°30' E 139°45'0 0.0
2018-Jun-19 01:28N 35°30' E 139°45'0 0.1
2018-Jun-19 00:52N 35°30' E 139°45'1 0.1
2018-Jun-18 10:12N 35°31' E 139°45'3 9.9
2018-Jun-18 09:56N 35°30' E 139°48'611.6
2018-Jun-18 09:25N 35°24' E 139°46'512.2
2018-Jun-18 08:59N 35°19' E 139°44'  
Track history (hours):
 
Tides and Currents Weather Stations Pressure Air Temp Water Temp Dewpoint Dewpoint Depression Visibility Wind Speed Wind Dir Waves Ship Positions

Aominesanmaru No.58

Last reported at 2018-Jun-22 07:45 UTC. Time now 2018-Jun-22 14:56 UTC.
Position N 35°31' E 139°45'.

Length 59 m.

Type: Ship (hazmat cat A). MMSI: 431006719.

Date/timePositionNaut miles runAvg speedWind from/ knotsBaromVisibWave heightAir tempDewpointWater temp
2018-Jun-22 07:45N 35°31' E 139°45'2 8.0
2018-Jun-22 07:27N 35°29' E 139°43'4 9.3
2018-Jun-22 07:00N 35°25' E 139°42'3 5.6
2018-Jun-22 06:24N 35°24' E 139°38'0 0.0
2018-Jun-22 05:57N 35°24' E 139°38'0 0.0
2018-Jun-22 05:30N 35°24' E 139°38'0 0.0
2018-Jun-22 04:57N 35°24' E 139°38'0 0.0
2018-Jun-22 04:30N 35°24' E 139°38'1 2.2
2018-Jun-22 03:52N 35°24' E 139°40'0 0.6
2018-Jun-22 03:30N 35°24' E 139°40'4 6.7
2018-Jun-22 02:54N 35°26' E 139°44'3 1.3
2018-Jun-22 00:47N 35°28' E 139°47'3 0.1
2018-Jun-20 21:18N 35°25' E 139°49'6 0.3
2018-Jun-20 02:48N 35°30' E 139°45'3 9.9
2018-Jun-20 02:29N 35°29' E 139°42'5 9.3
2018-Jun-20 01:57N 35°23' E 139°41'3 2.4
2018-Jun-20 00:44N 35°25' E 139°38'0 0.0
2018-Jun-20 00:23N 35°25' E 139°38'0 0.0
2018-Jun-19 23:41N 35°25' E 139°38'0 1.3
2018-Jun-19 23:27N 35°25' E 139°39'2 5.4
2018-Jun-19 23:00N 35°24' E 139°41'610.4
2018-Jun-19 22:28N 35°29' E 139°42'3 0.2
2018-Jun-19 09:44N 35°31' E 139°45'4 8.5
2018-Jun-19 09:18N 35°30' E 139°49'3 0.5
2018-Jun-19 03:32N 35°30' E 139°46'010.0
2018-Jun-19 03:30N 35°30' E 139°45'1 0.6
2018-Jun-19 02:22N 35°30' E 139°45'0 0.0
2018-Jun-19 01:55N 35°30' E 139°45'0 0.0
2018-Jun-19 01:28N 35°30' E 139°45'0 0.1
2018-Jun-19 00:52N 35°30' E 139°45'1 0.1
2018-Jun-18 10:12N 35°31' E 139°45'3 9.9
2018-Jun-18 09:56N 35°30' E 139°48'611.6
2018-Jun-18 09:25N 35°24' E 139°46'512.2
2018-Jun-18 08:59N 35°19' E 139°44'  

Dump ship's entire track history